Time;durP1;ratioP1;P1;durP2;ratioP2;P2;SDS_P1;SDS_P2;PMS_P1;PMS_P2;Temp;Humidity;BMP_temperature;BMP_pressure;BME280_temperature;BME280_humidity;BME280_pressure;Samples;Min_cycle;Max_cycle;Signal;HPM_P1;HPM_P2
2022/03/29 00:02:08;;;;;;;;;48.00;35.25;;;;;15.84;42.75;101145.09;5076912;28;45332;-68
2022/03/29 00:04:33;;;;;;;;;31.75;28.50;;;;;15.84;41.76;101145.09;5071975;28;45252;-67
2022/03/29 00:06:59;;;;;;;;;37.00;26.75;;;;;15.85;42.14;101140.47;5069068;28;45578;-67
2022/03/29 00:09:24;;;;;;;;;44.50;33.00;;;;;15.86;42.23;101142.16;5078978;27;46644;-68
2022/03/29 00:11:50;;;;;;;;;44.00;30.00;;;;;15.88;42.55;101142.84;5071461;28;45267;-67
2022/03/29 00:14:15;;;;;;;;;36.75;31.50;;;;;15.88;41.62;101134.63;5070742;28;45309;-66
2022/03/29 00:16:42;;;;;;;;;37.25;31.75;;;;;15.88;43.10;101118.19;5074831;28;45117;-67
2022/03/29 00:19:08;;;;;;;;;44.50;34.25;;;;;15.88;42.83;101129.16;5065964;28;45497;-68
2022/03/29 00:21:34;;;;;;;;;38.25;32.00;;;;;15.85;42.10;101119.38;5067611;28;45380;-67
2022/03/29 00:23:59;;;;;;;;;33.75;31.25;;;;;15.86;42.27;101112.00;5068643;28;45368;-67
2022/03/29 00:26:25;;;;;;;;;41.25;34.75;;;;;15.85;41.71;101107.59;5066817;28;45378;-68
2022/03/29 00:28:51;;;;;;;;;37.25;32.50;;;;;15.87;42.24;101100.03;5093528;27;46631;-67
2022/03/29 00:31:19;;;;;;;;;36.00;31.75;;;;;15.85;42.34;101104.84;5067316;27;45322;-68
2022/03/29 00:33:45;;;;;;;;;39.50;32.50;;;;;15.81;42.93;101103.47;5067951;28;45306;-68
2022/03/29 00:36:11;;;;;;;;;29.75;28.00;;;;;15.82;42.04;101094.22;5072810;28;45630;-68
2022/03/29 00:38:36;;;;;;;;;37.50;31.75;;;;;15.77;41.63;101083.81;5066333;28;46231;-68
2022/03/29 00:41:02;;;;;;;;;40.25;34.00;;;;;15.80;42.33;101088.06;5064863;28;45486;-67
2022/03/29 00:43:27;;;;;;;;;45.50;39.50;;;;;15.75;42.10;101082.25;5063745;28;45375;-68
2022/03/29 00:45:56;;;;;;;;;49.25;38.00;;;;;15.72;42.55;101079.84;5073563;28;45468;-68
2022/03/29 00:48:22;;;;;;;;;47.75;37.75;;;;;15.70;42.49;101070.97;5064333;28;45409;-68
2022/03/29 00:50:47;;;;;;;;;42.75;37.00;;;;;15.69;42.06;101064.63;5075622;28;45450;-68
2022/03/29 00:53:13;;;;;;;;;43.00;35.25;;;;;15.59;43.37;101066.69;5070143;27;45325;-67
2022/03/29 00:55:39;;;;;;;;;48.75;38.00;;;;;15.50;43.18;101063.06;5065538;28;45634;-68
2022/03/29 00:58:09;;;;;;;;;40.50;34.75;;;;;15.50;43.44;101060.31;5069037;28;46479;-68
2022/03/29 01:00:35;;;;;;;;;42.25;35.00;;;;;15.53;43.06;101057.28;5067252;28;45466;-68
2022/03/29 01:03:03;;;;;;;;;40.00;36.00;;;;;15.47;42.92;101057.97;5063916;28;45382;-68
2022/03/29 01:05:30;;;;;;;;;43.75;35.00;;;;;15.48;44.00;101051.47;5069192;28;45406;-67
2022/03/29 01:07:56;;;;;;;;;39.25;33.75;;;;;15.46;43.56;101048.03;5077114;28;46200;-68
2022/03/29 01:10:22;;;;;;;;;44.50;37.00;;;;;15.40;43.80;101043.25;5064612;28;45354;-67
2022/03/29 01:12:48;;;;;;;;;38.25;30.25;;;;;15.37;43.64;101039.97;5075176;28;45475;-68
2022/03/29 01:15:14;;;;;;;;;34.75;28.50;;;;;15.37;43.03;101040.84;5065365;28;45360;-67
2022/03/29 01:17:41;;;;;;;;;39.25;32.00;;;;;15.40;42.27;101035.03;5072472;28;46163;-68
2022/03/29 01:20:21;;;;;;;;;40.75;31.50;;;;;15.42;42.00;101040.31;5065292;28;45384;-68
2022/03/29 01:22:49;;;;;;;;;42.50;32.00;;;;;15.37;42.30;101038.09;5069896;28;45438;-68
2022/03/29 01:25:17;;;;;;;;;38.50;33.00;;;;;15.34;42.65;101030.22;5064076;28;45549;-68
2022/03/29 01:27:45;;;;;;;;;42.75;33.00;;;;;15.34;42.10;101021.19;5070518;27;48202;-68
2022/03/29 01:30:11;;;;;;;;;36.75;29.75;;;;;15.31;41.52;101010.56;5082756;27;45286;-68
2022/03/29 01:32:39;;;;;;;;;36.25;31.75;;;;;15.30;41.47;101015.19;5064624;28;45362;-68
2022/03/29 01:35:06;;;;;;;;;35.75;32.75;;;;;15.24;41.61;101015.88;5065099;28;45483;-67
2022/03/29 01:37:32;;;;;;;;;40.75;31.25;;;;;15.24;41.67;101015.88;5064210;27;45622;-68
2022/03/29 01:39:57;;;;;;;;;36.00;30.50;;;;;15.17;41.56;101014.84;5062189;28;45257;-68
2022/03/29 01:42:23;;;;;;;;;34.50;31.00;;;;;15.22;42.75;101015.19;5064255;28;45349;-68
2022/03/29 01:44:48;;;;;;;;;38.25;29.25;;;;;15.23;42.02;101014.16;5062975;28;45163;-68
2022/03/29 01:47:19;;;;;;;;;39.50;32.00;;;;;15.12;41.44;101001.66;5067283;28;46785;-68
2022/03/29 01:49:44;;;;;;;;;33.75;31.25;;;;;15.20;40.43;101007.13;5069702;28;45377;-68
2022/03/29 01:52:10;;;;;;;;;17.50;13.75;;;;;15.23;40.60;100996.88;5067414;28;45290;-68
2022/03/29 01:54:35;;;;;;;;;31.50;25.25;;;;;15.18;41.27;100991.94;5062807;28;45559;-68
2022/03/29 01:57:00;;;;;;;;;39.75;31.25;;;;;15.22;40.52;100998.75;5079595;28;46752;-68
2022/03/29 01:59:26;;;;;;;;;34.50;27.00;;;;;15.22;40.39;100996.03;5072968;28;45306;-68
2022/03/29 02:01:51;;;;;;;;;39.00;30.75;;;;;15.21;40.47;100983.34;5077684;28;45559;-68
2022/03/29 02:04:17;;;;;;;;;37.50;32.25;;;;;15.17;40.25;100976.53;5076382;28;45313;-68
2022/03/29 02:06:42;;;;;;;;;30.25;26.00;;;;;15.13;40.96;100966.94;5079170;28;48023;-68
2022/03/29 02:09:08;;;;;;;;;35.50;27.75;;;;;15.16;41.58;100966.63;5065417;28;45292;-68
2022/03/29 02:11:35;;;;;;;;;28.25;25.00;;;;;15.21;41.72;100964.19;5072224;28;45414;-68
2022/03/29 02:14:01;;;;;;;;;34.75;30.50;;;;;15.16;39.92;100947.47;5074189;28;45448;-68
2022/03/29 02:16:26;;;;;;;;;31.25;28.00;;;;;15.21;40.70;100947.78;5074185;28;46650;-68
2022/03/29 02:18:52;;;;;;;;;28.75;26.25;;;;;15.18;40.52;100951.75;5072191;28;45231;-68
2022/03/29 02:21:17;;;;;;;;;37.75;27.00;;;;;15.11;38.99;100947.13;5069139;28;45329;-67
2022/03/29 02:23:43;;;;;;;;;32.50;27.75;;;;;15.13;38.51;100956.00;5071807;28;45443;-68
2022/03/29 02:26:08;;;;;;;;;38.50;30.25;;;;;15.16;38.92;100948.31;5075968;28;47370;-68
2022/03/29 02:28:34;;;;;;;;;32.00;27.00;;;;;15.22;39.19;100938.53;5089561;27;45463;-67
2022/03/29 02:31:00;;;;;;;;;29.00;27.00;;;;;15.25;39.48;100940.94;5071751;27;45452;-68
2022/03/29 02:33:25;;;;;;;;;30.75;27.50;;;;;15.23;39.69;100926.56;5067628;28;45617;-68
2022/03/29 02:35:51;;;;;;;;;32.00;26.50;;;;;15.21;39.10;100923.16;5074254;28;46611;-68
2022/03/29 02:38:18;;;;;;;;;30.75;22.00;;;;;15.20;38.44;100910.47;5065614;28;45548;-68
2022/03/29 02:40:44;;;;;;;;;23.25;21.75;;;;;15.17;38.27;100917.19;5075290;28;45358;-68
2022/03/29 02:43:09;;;;;;;;;32.25;26.25;;;;;15.16;38.37;100914.59;5065145;28;45511;-68
2022/03/29 02:45:35;;;;;;;;;27.50;26.25;;;;;15.06;38.06;100908.47;5080261;28;46519;-68
2022/03/29 02:48:00;;;;;;;;;26.25;24.25;;;;;15.03;38.30;100903.34;5064652;27;45278;-68
2022/03/29 02:50:26;;;;;;;;;32.75;28.75;;;;;15.04;38.16;100905.06;5068790;28;45318;-67
2022/03/29 02:52:56;;;;;;;;;31.25;25.25;;;;;15.04;38.50;100899.59;5066377;28;45317;-68
2022/03/29 02:55:27;;;;;;;;;30.25;27.50;;;;;15.09;39.59;100892.56;5066532;28;45658;-67
2022/03/29 02:57:54;;;;;;;;;34.25;25.00;;;;;15.04;39.32;100881.28;5082230;28;45390;-68
2022/03/29 03:00:20;;;;;;;;;28.00;22.75;;;;;15.06;39.67;100887.44;5068168;28;45513;-68
2022/03/29 03:02:47;;;;;;;;;25.25;24.00;;;;;15.04;38.05;100888.66;5081470;28;45357;-68
2022/03/29 03:05:14;;;;;;;;;28.75;24.75;;;;;15.08;38.27;100887.25;5070643;28;46114;-68
2022/03/29 03:07:40;;;;;;;;;26.25;22.50;;;;;15.04;38.47;100885.91;5076108;28;45336;-68
2022/03/29 03:10:07;;;;;;;;;31.50;24.25;;;;;15.05;38.33;100887.63;5067073;28;45248;-68
2022/03/29 03:12:39;;;;;;;;;33.50;24.50;;;;;15.06;39.17;100890.16;5072448;28;45855;-68
2022/03/29 03:15:07;;;;;;;;;23.50;20.00;;;;;15.04;39.12;100878.56;5084826;27;46193;-68
2022/03/29 03:17:32;;;;;;;;;25.25;22.75;;;;;15.01;39.67;100872.56;5072513;28;45188;-67
2022/03/29 03:19:58;;;;;;;;;24.75;22.00;;;;;15.01;39.80;100872.56;5065750;28;45610;-68
2022/03/29 03:22:24;;;;;;;;;28.75;23.00;;;;;15.05;39.13;100884.88;5071634;28;45400;-68
2022/03/29 03:24:49;;;;;;;;;35.25;28.00;;;;;15.03;38.72;100886.94;5064021;28;46418;-68
2022/03/29 03:27:16;;;;;;;;;26.25;25.00;;;;;14.98;39.12;100878.38;5079094;28;45642;-68
2022/03/29 03:29:42;;;;;;;;;23.00;18.50;;;;;15.01;39.35;100883.50;5088221;27;45319;-67
2022/03/29 03:32:08;;;;;;;;;24.25;22.00;;;;;15.03;40.41;100870.53;5069126;28;45265;-68
2022/03/29 03:34:34;;;;;;;;;30.25;21.00;;;;;14.99;39.85;100866.41;5066326;28;47721;-67
2022/03/29 03:37:02;;;;;;;;;29.75;23.50;;;;;14.97;39.79;100863.88;5075432;28;45354;-68
2022/03/29 03:39:28;;;;;;;;;27.50;24.25;;;;;14.94;39.70;100856.00;5066823;28;45890;-68
2022/03/29 03:41:53;;;;;;;;;24.25;23.25;;;;;14.99;40.63;100860.94;5067755;28;45416;-68
2022/03/29 03:44:19;;;;;;;;;27.75;24.75;;;;;14.97;39.55;100868.47;5063650;28;46669;-68
2022/03/29 03:46:44;;;;;;;;;23.00;22.00;;;;;15.00;40.31;100857.16;5070252;28;45313;-68
2022/03/29 03:49:10;;;;;;;;;24.25;24.25;;;;;15.01;40.54;100843.31;5063934;28;45314;-67
2022/03/29 03:51:35;;;;;;;;;30.00;22.25;;;;;15.01;40.41;100842.47;5069865;28;45514;-68
2022/03/29 03:54:00;;;;;;;;;31.25;23.50;;;;;14.96;39.71;100842.16;5063420;28;46723;-68
2022/03/29 03:56:26;;;;;;;;;32.25;28.50;;;;;14.99;40.50;100841.78;5068231;28;45347;-68
2022/03/29 03:58:51;;;;;;;;;26.75;24.75;;;;;14.99;39.95;100848.09;5077083;28;45732;-68
2022/03/29 04:01:16;;;;;;;;;36.00;24.75;;;;;14.98;40.55;100832.72;5069228;28;45574;-67
2022/03/29 04:03:42;;;;;;;;;24.75;21.75;;;;;15.03;40.02;100840.41;5071841;28;48194;-67
2022/03/29 04:06:07;;;;;;;;;28.25;25.75;;;;;14.91;40.42;100830.84;5073227;28;45582;-68
2022/03/29 04:08:32;;;;;;;;;33.25;27.25;;;;;14.70;41.46;100832.25;5072678;28;45313;-68
2022/03/29 04:10:58;;;;;;;;;39.75;27.50;;;;;14.65;41.01;100831.94;5068967;28;45856;-67
2022/03/29 04:13:24;;;;;;;;;34.75;30.50;;;;;14.69;41.61;100832.44;5063131;28;46401;-67
2022/03/29 04:15:49;;;;;;;;;32.00;28.75;;;;;14.73;41.37;100823.72;5066646;28;45560;-68
2022/03/29 04:18:15;;;;;;;;;26.50;26.00;;;;;14.85;41.45;100834.28;5067716;28;45326;-67
2022/03/29 04:20:41;;;;;;;;;37.75;30.25;;;;;14.87;41.30;100824.03;5066406;28;45310;-68
2022/03/29 04:23:07;;;;;;;;;38.25;29.75;;;;;14.91;41.09;100825.38;5068659;28;46318;-67
2022/03/29 04:25:33;;;;;;;;;39.25;32.00;;;;;14.72;42.03;100816.53;5070946;28;45898;-68
2022/03/29 04:27:59;;;;;;;;;31.50;27.25;;;;;14.67;41.61;100818.94;5076286;27;45503;-68
2022/03/29 04:30:25;;;;;;;;;37.00;28.75;;;;;14.66;41.87;100814.50;5079666;27;45398;-67
2022/03/29 04:32:51;;;;;;;;;36.00;29.00;;;;;14.68;42.08;100809.69;5066917;28;45599;-68
2022/03/29 04:35:16;;;;;;;;;36.75;29.00;;;;;14.63;42.15;100806.63;5072107;28;45400;-68
2022/03/29 04:37:42;;;;;;;;;34.50;31.50;;;;;14.69;41.48;100805.94;5068963;28;45313;-68
2022/03/29 04:40:09;;;;;;;;;36.50;30.00;;;;;14.76;42.02;100817.88;5065103;28;45389;-68
2022/03/29 04:42:41;;;;;;;;;31.50;23.50;;;;;14.78;41.60;100826.78;5063189;28;46021;-69
2022/03/29 04:45:07;;;;;;;;;33.75;29.00;;;;;14.82;41.60;100823.72;5063858;28;45536;-68
2022/03/29 04:47:32;;;;;;;;;26.75;25.75;;;;;14.82;42.28;100812.78;5069890;28;45598;-68
2022/03/29 04:49:58;;;;;;;;;32.50;28.75;;;;;14.74;42.10;100795.34;5063008;28;45442;-68
2022/03/29 04:52:23;;;;;;;;;36.50;27.75;;;;;14.74;42.66;100809.03;5065335;28;47765;-68
2022/03/29 04:54:48;;;;;;;;;38.00;31.25;;;;;14.69;42.51;100789.53;5071890;28;45285;-68
2022/03/29 04:57:14;;;;;;;;;30.50;26.75;;;;;14.75;42.37;100796.22;5068297;28;45490;-69
2022/03/29 04:59:39;;;;;;;;;35.75;30.00;;;;;14.70;43.06;100793.13;5076971;27;45304;-67
2022/03/29 05:02:04;;;;;;;;;30.75;27.50;;;;;14.74;42.89;100792.63;5067681;28;45218;-68
2022/03/29 05:04:30;;;;;;;;;32.50;28.25;;;;;14.74;42.85;100792.63;5065363;28;45294;-68
2022/03/29 05:06:55;;;;;;;;;28.50;26.75;;;;;14.71;43.14;100795.69;5070552;28;45574;-68
2022/03/29 05:09:20;;;;;;;;;33.50;29.75;;;;;14.66;43.40;100798.09;5069903;28;45472;-67
2022/03/29 05:11:46;;;;;;;;;34.00;28.50;;;;;14.69;43.65;100803.19;5071741;28;46834;-68
2022/03/29 05:14:11;;;;;;;;;29.00;26.25;;;;;14.68;43.01;100800.66;5081764;28;45215;-67
2022/03/29 05:16:36;;;;;;;;;33.25;30.50;;;;;14.64;43.76;100811.09;5070907;28;45349;-68
2022/03/29 05:19:02;;;;;;;;;30.25;20.00;;;;;14.57;43.46;100810.06;5067168;28;45213;-68
2022/03/29 05:21:28;;;;;;;;;32.25;30.75;;;;;14.60;43.59;100809.75;5066846;28;45412;-67
2022/03/29 05:23:53;;;;;;;;;31.75;25.75;;;;;14.61;43.39;100814.16;5060487;28;45487;-68
2022/03/29 05:26:19;;;;;;;;;41.00;32.00;;;;;14.57;43.83;100812.81;5061742;28;45389;-67
2022/03/29 05:28:44;;;;;;;;;33.50;29.75;;;;;14.40;44.26;100820.16;5073336;27;45473;-67
2022/03/29 05:31:09;;;;;;;;;36.75;28.25;;;;;14.26;44.11;100809.88;5075058;28;47204;-66
2022/03/29 05:33:35;;;;;;;;;29.25;27.50;;;;;14.33;43.86;100801.84;5069064;28;45520;-66
2022/03/29 05:36:02;;;;;;;;;33.00;25.75;;;;;14.44;43.71;100809.75;5066563;28;45487;-68
2022/03/29 05:38:27;;;;;;;;;30.75;25.50;;;;;14.55;44.14;100806.66;5065765;28;45408;-67
2022/03/29 05:40:53;;;;;;;;;34.25;27.50;;;;;14.50;43.40;100792.66;5076112;28;47512;-67
2022/03/29 05:43:19;;;;;;;;;32.75;27.50;;;;;14.59;43.95;100813.50;5068248;28;45604;-67
2022/03/29 05:48:51;;;;;;;;;33.25;23.25;;;;;14.46;44.36;100807.69;5078359;28;45600;-67
2022/03/29 05:51:13;;;;;;;;;29.50;26.50;;;;;14.47;44.40;100803.91;5067445;28;45382;-67
2022/03/29 05:53:39;;;;;;;;;29.50;25.75;;;;;14.55;43.64;100801.19;5060863;28;45323;-68
2022/03/29 05:56:04;;;;;;;;;37.25;27.50;;;;;14.66;44.15;100802.72;5071179;28;45452;-67
2022/03/29 05:58:30;;;;;;;;;36.25;31.00;;;;;14.71;43.81;100797.56;5078123;28;45413;-68
2022/03/29 06:00:55;;;;;;;;;30.75;27.00;;;;;14.75;43.14;100799.81;5069885;28;46485;-67
2022/03/29 06:03:21;;;;;;;;;34.50;30.25;;;;;14.70;43.83;100799.44;5064278;28;45270;-67
2022/03/29 06:05:47;;;;;;;;;32.50;30.25;;;;;14.71;44.06;100798.41;5079347;27;45374;-68
2022/03/29 06:08:12;;;;;;;;;29.75;28.25;;;;;14.79;43.15;100792.09;5075587;27;45646;-67
2022/03/29 06:10:38;;;;;;;;;26.50;24.50;;;;;14.84;43.18;100786.06;5066211;28;46271;-67
2022/03/29 06:13:04;;;;;;;;;34.50;28.50;;;;;14.87;43.09;100770.19;5075265;28;45362;-68
2022/03/29 06:15:29;;;;;;;;;35.50;31.00;;;;;14.90;43.19;100789.00;5066888;28;45403;-67
2022/03/29 06:17:54;;;;;;;;;38.25;30.00;;;;;14.87;42.97;100803.00;5072964;28;45486;-68
2022/03/29 06:20:20;;;;;;;;;30.50;26.25;;;;;14.77;42.91;100795.00;5066546;28;45633;-68
2022/03/29 06:22:46;;;;;;;;;33.00;25.25;;;;;14.90;43.44;100794.47;5063452;28;45372;-67
2022/03/29 06:25:13;;;;;;;;;32.50;29.25;;;;;15.00;42.76;100794.25;5070443;28;47890;-67
2022/03/29 06:27:38;;;;;;;;;33.75;26.00;;;;;15.05;42.28;100789.13;5072754;27;45239;-67
2022/03/29 06:30:05;;;;;;;;;22.50;17.00;;;;;15.13;42.05;100797.28;5085793;27;45405;-67
2022/03/29 06:32:30;;;;;;;;;34.00;29.75;;;;;15.06;42.91;100790.78;5066007;28;45194;-67
2022/03/29 06:34:56;;;;;;;;;38.25;33.00;;;;;15.03;42.72;100789.28;5063726;28;45357;-68
2022/03/29 06:37:21;;;;;;;;;43.75;34.50;;;;;15.04;41.74;100810.16;5066742;28;45389;-69
2022/03/29 06:39:47;;;;;;;;;40.00;28.25;;;;;15.00;41.63;100833.41;5061394;28;47362;-68
2022/03/29 06:42:12;;;;;;;;;34.00;29.50;;;;;14.99;42.03;100820.75;5073875;28;45783;-68
2022/03/29 06:44:39;;;;;;;;;39.25;27.25;;;;;15.10;42.05;100831.34;5063909;28;45283;-67
2022/03/29 06:47:05;;;;;;;;;29.75;26.50;;;;;15.17;42.48;100828.75;5070536;28;45469;-68
2022/03/29 06:49:31;;;;;;;;;30.50;26.75;;;;;15.19;42.24;100827.50;5078406;28;46488;-67
2022/03/29 06:51:56;;;;;;;;;30.00;23.25;;;;;15.23;41.78;100829.91;5068492;28;45437;-68
2022/03/29 06:54:22;;;;;;;;;29.75;27.50;;;;;15.31;42.12;100833.47;5063059;28;45289;-68
2022/03/29 06:56:47;;;;;;;;;29.75;25.00;;;;;15.31;44.29;100825.28;5074317;28;45398;-68
2022/03/29 06:59:13;;;;;;;;;32.00;27.50;;;;;15.36;43.01;100831.06;5071879;28;47663;-68
2022/03/29 07:01:38;;;;;;;;;34.75;29.75;;;;;15.42;42.62;100816.66;5071293;28;45291;-69
2022/03/29 07:04:04;;;;;;;;;22.75;15.75;;;;;15.43;41.26;100812.88;5072289;28;45196;-69
2022/03/29 07:06:31;;;;;;;;;46.00;33.25;;;;;15.44;40.63;100809.13;5073657;28;45433;-68
2022/03/29 07:11:42;;;;;;;;;41.75;29.25;;;;;15.61;40.70;100809.94;5068359;28;45283;-68
2022/03/29 07:14:08;;;;;;;;;38.50;28.50;;;;;15.76;40.32;100801.81;5070812;28;45322;-68
2022/03/29 07:16:33;;;;;;;;;41.50;27.00;;;;;15.86;40.36;100796.91;5068011;28;45409;-68
2022/03/29 07:18:59;;;;;;;;;38.50;30.50;;;;;16.00;40.12;100798.88;5067469;28;46997;-68
2022/03/29 07:21:25;;;;;;;;;32.25;29.00;;;;;16.01;39.76;100800.59;5065919;28;45307;-68
2022/03/29 07:23:51;;;;;;;;;41.50;30.25;;;;;16.00;39.64;100798.88;5066614;28;45391;-68
2022/03/29 07:26:16;;;;;;;;;39.00;31.50;;;;;15.93;40.30;100786.94;5065473;28;45897;-68
2022/03/29 07:28:42;;;;;;;;;49.75;36.50;;;;;15.78;40.95;100792.34;5088937;27;46259;-68
2022/03/29 07:31:07;;;;;;;;;36.25;32.50;;;;;15.72;40.89;100800.44;5067192;27;45424;-68
2022/03/29 07:33:33;;;;;;;;;36.50;34.00;;;;;15.56;41.83;100804.97;5064551;28;45461;-68
2022/03/29 07:35:58;;;;;;;;;43.50;35.00;;;;;15.53;41.59;100790.81;5073872;28;45515;-68
2022/03/29 07:38:24;;;;;;;;;40.75;31.50;;;;;15.55;41.45;100795.06;5064562;28;45586;-68
2022/03/29 07:40:49;;;;;;;;;39.25;32.50;;;;;15.58;42.09;100791.09;5069166;28;45343;-68
2022/03/29 07:43:15;;;;;;;;;43.50;30.75;;;;;15.61;42.02;100778.94;5062823;28;45275;-68
2022/03/29 07:45:41;;;;;;;;;33.75;30.75;;;;;15.65;41.62;100778.41;5068937;28;45392;-68
2022/03/29 07:48:06;;;;;;;;;34.75;31.25;;;;;15.69;41.33;100778.91;5062306;28;46940;-67
2022/03/29 07:50:33;;;;;;;;;40.00;31.50;;;;;15.83;41.12;100770.75;5066114;28;45260;-68
2022/03/29 07:53:00;;;;;;;;;35.25;30.25;;;;;15.89;41.07;100782.88;5080551;28;45380;-68
2022/03/29 07:55:26;;;;;;;;;36.00;32.50;;;;;15.82;41.08;100784.63;5066359;28;45373;-68
2022/03/29 07:57:52;;;;;;;;;35.50;31.75;;;;;15.83;41.20;100769.91;5076669;27;46276;-67
2022/03/29 08:00:33;;;;;;;;;44.75;34.75;;;;;15.95;40.73;100776.66;5080114;27;45329;-68
2022/03/29 08:03:01;;;;;;;;;44.25;34.00;;;;;15.90;41.06;100755.28;5077772;28;45310;-68
2022/03/29 08:05:28;;;;;;;;;46.25;29.75;;;;;15.99;40.96;100764.31;5068360;28;45373;-67
2022/03/29 08:07:53;;;;;;;;;33.25;27.50;;;;;15.91;41.63;100767.13;5074839;28;45219;-67
2022/03/29 08:10:19;;;;;;;;;40.00;33.50;;;;;15.80;41.32;100765.63;5064867;28;45377;-68
2022/03/29 08:12:44;;;;;;;;;38.00;33.50;;;;;15.82;41.70;100765.47;5066007;28;45246;-68
2022/03/29 08:15:11;;;;;;;;;40.75;33.00;;;;;15.87;41.37;100760.28;5065965;28;45160;-67
2022/03/29 08:17:38;;;;;;;;;37.50;33.00;;;;;15.90;41.53;100765.41;5069546;28;47088;-68
2022/03/29 08:20:05;;;;;;;;;37.75;33.50;;;;;15.99;41.45;100763.47;5063827;28;45382;-69
2022/03/29 08:22:31;;;;;;;;;41.00;34.25;;;;;15.93;41.81;100762.28;5067460;27;45461;-69
2022/03/29 08:24:56;;;;;;;;;42.00;33.25;;;;;15.68;42.14;100771.72;5063615;28;45421;-67
2022/03/29 08:27:22;;;;;;;;;40.00;34.00;;;;;15.60;42.61;100764.41;5068521;28;46372;-68
2022/03/29 08:29:47;;;;;;;;;46.50;33.25;;;;;15.63;42.81;100758.56;5087965;27;45386;-67
2022/03/29 08:32:14;;;;;;;;;38.50;31.50;;;;;15.98;42.14;100750.78;5067172;28;45228;-67
2022/03/29 08:34:39;;;;;;;;;41.50;34.50;;;;;16.29;41.93;100749.63;5063153;28;45467;-67
2022/03/29 08:37:05;;;;;;;;;51.50;34.50;;;;;16.50;41.45;100750.84;5073619;28;45256;-67
2022/03/29 08:39:30;;;;;;;;;47.25;32.00;;;;;16.61;41.43;100753.16;5062457;28;45275;-66
2022/03/29 08:42:03;;;;;;;;;47.50;34.25;;;;;16.75;41.01;100744.06;5065520;28;45440;-66
2022/03/29 08:44:31;;;;;;;;;51.00;38.00;;;;;16.92;41.00;100745.59;5066480;28;45334;-66
2022/03/29 08:46:57;;;;;;;;;40.25;33.50;;;;;17.05;41.06;100734.78;5068343;28;45488;-67
2022/03/29 08:49:23;;;;;;;;;37.25;34.00;;;;;16.91;41.15;100738.41;5061988;28;45329;-68
2022/03/29 08:51:49;;;;;;;;;46.25;36.50;;;;;17.18;41.06;100734.09;5070487;28;45302;-68
2022/03/29 08:54:15;;;;;;;;;45.50;35.75;;;;;17.42;40.50;100736.53;5063135;28;45572;-67
2022/03/29 08:56:40;;;;;;;;;44.75;35.00;;;;;17.69;40.75;100728.63;5072554;28;45385;-68
2022/03/29 08:59:05;;;;;;;;;35.75;28.50;;;;;17.59;40.02;100717.06;5072984;28;45357;-67
2022/03/29 09:01:31;;;;;;;;;42.00;31.50;;;;;17.18;41.57;100722.28;5070237;28;45422;-67
2022/03/29 09:04:06;;;;;;;;;34.25;30.50;;;;;17.23;40.93;100706.94;5070821;28;45348;-68
2022/03/29 09:06:31;;;;;;;;;46.50;35.75;;;;;17.35;40.20;100715.53;5075500;28;45401;-68
2022/03/29 09:08:57;;;;;;;;;43.50;36.25;;;;;17.31;40.36;100695.84;5074217;28;45505;-68
2022/03/29 09:11:22;;;;;;;;;40.75;33.25;;;;;17.83;39.79;100681.81;5074239;28;45295;-68
2022/03/29 09:14:04;;;;;;;;;43.50;34.00;;;;;18.14;38.78;100699.88;5073568;28;45476;-68
2022/03/29 09:16:34;;;;;;;;;41.75;34.00;;;;;18.14;38.07;100683.38;5068463;28;45487;-67
2022/03/29 09:19:00;;;;;;;;;43.00;34.00;;;;;18.21;38.94;100685.13;5067878;28;45337;-67
2022/03/29 09:21:25;;;;;;;;;39.75;33.50;;;;;18.23;38.70;100684.94;5068488;28;45391;-67
2022/03/29 09:24:07;;;;;;;;;41.25;33.75;;;;;18.50;38.10;100683.22;5071444;28;45619;-67
2022/03/29 09:26:32;;;;;;;;;40.00;33.00;;;;;18.07;38.54;100679.72;5078133;28;46156;-67
2022/03/29 09:28:58;;;;;;;;;42.25;34.75;;;;;18.07;39.22;100690.72;5091978;27;45209;-67
2022/03/29 09:31:27;;;;;;;;;45.50;33.50;;;;;18.33;38.15;100679.94;5075563;28;45383;-67
2022/03/29 09:34:10;;;;;;;;;42.25;32.75;;;;;18.64;37.89;100674.03;5067919;28;45524;-67
2022/03/29 09:36:48;;;;;;;;;36.50;33.50;;;;;18.79;36.70;100683.00;5071194;28;45452;-67
2022/03/29 09:39:39;;;;;;;;;41.25;36.25;;;;;18.84;36.62;100679.66;5083275;28;45427;-67
2022/03/29 09:42:16;;;;;;;;;35.25;33.25;;;;;18.90;37.33;100678.84;5081075;28;45406;-67
2022/03/29 09:44:47;;;;;;;;;42.75;31.75;;;;;18.97;37.07;100671.47;5074341;28;45294;-67
2022/03/29 09:47:15;;;;;;;;;46.25;36.25;;;;;18.99;37.28;100680.38;5071320;28;45347;-67
2022/03/29 09:49:56;;;;;;;;;40.50;33.00;;;;;19.06;37.68;100675.75;5065680;28;45303;-67
2022/03/29 09:52:30;;;;;;;;;39.25;34.50;;;;;19.26;37.37;100671.16;5076766;28;45526;-67
2022/03/29 09:55:13;;;;;;;;;38.50;32.25;;;;;19.62;36.68;100667.25;5070155;27;45508;-67
2022/03/29 09:57:57;;;;;;;;;48.00;37.00;;;;;19.90;36.16;100667.91;5068609;28;46041;-67
2022/03/29 10:00:29;;;;;;;;;40.50;33.00;;;;;20.30;35.93;100671.53;5067245;28;45508;-67
2022/03/29 10:02:55;;;;;;;;;44.50;34.50;;;;;20.53;35.09;100669.16;5079384;28;45299;-67
2022/03/29 10:05:22;;;;;;;;;35.50;32.75;;;;;20.69;34.36;100664.25;5071820;27;48048;-67
2022/03/29 10:11:02;;;;;;;;;38.25;33.75;;;;;20.82;34.15;100644.91;5078638;28;45323;-67
2022/03/29 10:13:29;;;;;;;;;42.75;36.00;;;;;20.94;34.70;100638.47;5072432;28;45471;-66
2022/03/29 10:15:55;;;;;;;;;36.00;33.25;;;;;20.98;34.17;100642.50;5072666;28;45388;-67
2022/03/29 10:18:22;;;;;;;;;35.50;33.00;;;;;20.95;34.00;100642.09;5074470;28;45448;-66
2022/03/29 10:20:48;;;;;;;;;32.25;31.00;;;;;21.13;33.75;100635.84;5067725;28;45436;-66
2022/03/29 10:23:14;;;;;;;;;39.25;33.25;;;;;21.31;33.81;100628.56;5073618;27;45250;-67
2022/03/29 10:25:41;;;;;;;;;6.50;6.50;;;;;21.12;32.38;100628.59;5067848;28;45295;-66
2022/03/29 10:28:08;;;;;;;;;37.75;31.00;;;;;21.51;33.08;100628.44;5080601;27;45690;-66
2022/03/29 10:30:36;;;;;;;;;45.50;34.25;;;;;21.46;33.04;100627.41;5087418;27;45611;-66
2022/03/29 10:33:26;;;;;;;;;44.00;32.50;;;;;21.59;32.56;100614.34;5065672;28;45310;-67
2022/03/29 10:36:12;;;;;;;;;41.00;31.75;;;;;21.79;32.07;100613.34;5066718;28;45266;-68
2022/03/29 10:38:46;;;;;;;;;32.75;28.50;;;;;21.93;31.82;100609.38;5064491;28;47150;-67
2022/03/29 10:41:30;;;;;;;;;33.50;31.00;;;;;21.96;31.87;100607.06;5078985;28;45316;-67
2022/03/29 10:44:08;;;;;;;;;28.00;23.00;;;;;22.12;30.73;100602.88;5063409;28;45432;-67
2022/03/29 10:46:36;;;;;;;;;35.25;31.50;;;;;22.12;31.31;100600.97;5070292;28;45567;-67
2022/03/29 10:49:28;;;;;;;;;38.00;33.00;;;;;22.10;30.75;100599.47;5064322;28;46536;-68
2022/03/29 10:52:05;;;;;;;;;46.25;35.50;;;;;21.93;30.97;100598.31;5070962;28;45405;-66
2022/03/29 10:54:41;;;;;;;;;32.75;29.25;;;;;21.72;31.17;100605.94;5073386;28;45467;-66
2022/03/29 10:57:28;;;;;;;;;46.50;35.00;;;;;21.62;32.45;100597.31;5070090;28;45393;-65
2022/03/29 11:00:12;;;;;;;;;45.25;36.25;;;;;21.31;32.77;100594.53;5064211;28;45256;-68
2022/03/29 11:02:58;;;;;;;;;41.25;36.00;;;;;21.09;32.23;100593.16;5071443;28;45373;-66
2022/03/29 11:05:23;;;;;;;;;39.00;30.75;;;;;21.06;33.48;100582.53;5069778;28;45191;-66
2022/03/29 11:07:52;;;;;;;;;39.00;31.75;;;;;21.12;33.32;100587.16;5075321;28;45437;-67
2022/03/29 11:10:23;;;;;;;;;38.25;31.00;;;;;21.49;32.78;100574.41;5068042;28;47519;-66
2022/03/29 11:12:53;;;;;;;;;40.75;32.50;;;;;21.61;32.15;100576.25;5073393;28;45522;-68
2022/03/29 11:15:24;;;;;;;;;28.75;20.75;;;;;21.46;31.36;100580.41;5066446;28;45338;-66
2022/03/29 11:17:53;;;;;;;;;41.50;32.50;;;;;21.25;32.59;100565.03;5071579;28;45172;-66
2022/03/29 11:20:32;;;;;;;;;33.00;29.50;;;;;21.14;32.48;100579.53;5069764;28;47393;-66